sensor_id;sensor_type;location;lat;lon;timestamp;pressure;altitude;pressure_sealevel;temperature;humidity
15932;BME280;8065;49.520;11.284;2023-01-01T00:02:22;97741.41;;;16.85;72.13
15932;BME280;8065;49.520;11.284;2023-01-01T00:04:48;97740.28;;;16.86;72.08
15932;BME280;8065;49.520;11.284;2023-01-01T00:07:14;97741.75;;;16.84;71.84
15932;BME280;8065;49.520;11.284;2023-01-01T00:09:41;97739.50;;;16.86;72.01
15932;BME280;8065;49.520;11.284;2023-01-01T00:12:25;97754.75;;;16.82;72.23
15932;BME280;8065;49.520;11.284;2023-01-01T00:14:53;97749.38;;;16.82;72.00
15932;BME280;8065;49.520;11.284;2023-01-01T00:17:19;97751.22;;;16.78;72.52
15932;BME280;8065;49.520;11.284;2023-01-01T00:19:46;97752.34;;;16.77;72.29
15932;BME280;8065;49.520;11.284;2023-01-01T00:22:12;97748.09;;;16.76;72.21
15932;BME280;8065;49.520;11.284;2023-01-01T00:24:39;97748.38;;;16.70;72.53
15932;BME280;8065;49.520;11.284;2023-01-01T00:27:05;97740.59;;;16.65;72.68
15932;BME280;8065;49.520;11.284;2023-01-01T00:29:32;97751.06;;;16.70;72.38
15932;BME280;8065;49.520;11.284;2023-01-01T00:32:00;97750.78;;;16.76;72.39
15932;BME280;8065;49.520;11.284;2023-01-01T00:34:26;97747.53;;;16.66;72.61
15932;BME280;8065;49.520;11.284;2023-01-01T00:36:53;97746.97;;;16.61;72.83
15932;BME280;8065;49.520;11.284;2023-01-01T00:39:19;97747.34;;;16.59;72.89
15932;BME280;8065;49.520;11.284;2023-01-01T00:41:45;97746.47;;;16.55;73.25
15932;BME280;8065;49.520;11.284;2023-01-01T00:44:12;97752.09;;;16.50;73.14
15932;BME280;8065;49.520;11.284;2023-01-01T00:46:38;97754.72;;;16.47;73.14
15932;BME280;8065;49.520;11.284;2023-01-01T00:49:06;97747.75;;;16.42;73.63
15932;BME280;8065;49.520;11.284;2023-01-01T00:51:33;97740.81;;;16.41;73.33
15932;BME280;8065;49.520;11.284;2023-01-01T00:53:59;97746.88;;;16.38;73.34
15932;BME280;8065;49.520;11.284;2023-01-01T00:56:25;97745.31;;;16.37;73.53
15932;BME280;8065;49.520;11.284;2023-01-01T00:58:52;97742.66;;;16.37;73.55
15932;BME280;8065;49.520;11.284;2023-01-01T01:01:18;97735.22;;;16.30;74.08
15932;BME280;8065;49.520;11.284;2023-01-01T01:03:45;97740.06;;;16.25;74.09
15932;BME280;8065;49.520;11.284;2023-01-01T01:06:15;97734.53;;;16.18;74.50
15932;BME280;8065;49.520;11.284;2023-01-01T01:08:43;97734.88;;;16.16;74.14
15932;BME280;8065;49.520;11.284;2023-01-01T01:11:12;97723.66;;;16.11;74.43
15932;BME280;8065;49.520;11.284;2023-01-01T01:13:40;97727.03;;;16.08;74.84
15932;BME280;8065;49.520;11.284;2023-01-01T01:16:08;97726.31;;;16.11;74.28
15932;BME280;8065;49.520;11.284;2023-01-01T01:18:35;97727.88;;;16.12;74.49
15932;BME280;8065;49.520;11.284;2023-01-01T01:21:02;97717.16;;;16.12;74.43
15932;BME280;8065;49.520;11.284;2023-01-01T01:23:30;97725.19;;;16.12;74.16
15932;BME280;8065;49.520;11.284;2023-01-01T01:26:06;97728.56;;;16.09;74.14
15932;BME280;8065;49.520;11.284;2023-01-01T01:28:32;97721.66;;;16.08;74.12
15932;BME280;8065;49.520;11.284;2023-01-01T01:30:59;97722.53;;;16.12;73.85
15932;BME280;8065;49.520;11.284;2023-01-01T01:33:25;97725.63;;;16.14;74.04
15932;BME280;8065;49.520;11.284;2023-01-01T01:35:52;97724.94;;;16.17;73.68
15932;BME280;8065;49.520;11.284;2023-01-01T01:38:18;97723.13;;;16.21;73.74
15932;BME280;8065;49.520;11.284;2023-01-01T01:40:46;97728.91;;;16.23;73.44
15932;BME280;8065;49.520;11.284;2023-01-01T01:43:19;97738.50;;;16.24;73.72
15932;BME280;8065;49.520;11.284;2023-01-01T01:45:47;97732.72;;;16.22;73.45
15932;BME280;8065;49.520;11.284;2023-01-01T01:48:13;97737.28;;;16.21;73.44
15932;BME280;8065;49.520;11.284;2023-01-01T01:50:41;97737.66;;;16.20;73.41
15932;BME280;8065;49.520;11.284;2023-01-01T01:53:13;97740.25;;;16.16;73.81
15932;BME280;8065;49.520;11.284;2023-01-01T01:55:49;97741.72;;;16.14;73.70
15932;BME280;8065;49.520;11.284;2023-01-01T01:58:16;97751.66;;;16.13;73.86
15932;BME280;8065;49.520;11.284;2023-01-01T02:00:43;97750.88;;;16.13;73.81
15932;BME280;8065;49.520;11.284;2023-01-01T02:03:13;97762.31;;;16.10;73.99
15932;BME280;8065;49.520;11.284;2023-01-01T02:05:42;97749.94;;;16.05;73.56
15932;BME280;8065;49.520;11.284;2023-01-01T02:08:10;97758.41;;;16.07;73.68
15932;BME280;8065;49.520;11.284;2023-01-01T02:10:39;97751.91;;;15.92;74.13
15932;BME280;8065;49.520;11.284;2023-01-01T02:13:06;97750.97;;;15.85;74.42
15932;BME280;8065;49.520;11.284;2023-01-01T02:15:37;97745.44;;;15.78;75.07
15932;BME280;8065;49.520;11.284;2023-01-01T02:18:08;97738.66;;;15.68;75.10
15932;BME280;8065;49.520;11.284;2023-01-01T02:20:40;97735.81;;;15.61;75.38
15932;BME280;8065;49.520;11.284;2023-01-01T02:23:33;97734.84;;;15.53;75.77
15932;BME280;8065;49.520;11.284;2023-01-01T02:26:15;97726.97;;;15.45;75.70
15932;BME280;8065;49.520;11.284;2023-01-01T02:28:51;97731.81;;;15.55;75.30
15932;BME280;8065;49.520;11.284;2023-01-01T02:31:24;97741.16;;;15.61;75.69
15932;BME280;8065;49.520;11.284;2023-01-01T02:33:54;97735.81;;;15.61;75.68
15932;BME280;8065;49.520;11.284;2023-01-01T02:36:24;97740.22;;;15.69;74.76
15932;BME280;8065;49.520;11.284;2023-01-01T02:38:54;97736.44;;;15.70;74.31
15932;BME280;8065;49.520;11.284;2023-01-01T02:41:24;97731.34;;;15.81;74.53
15932;BME280;8065;49.520;11.284;2023-01-01T02:43:53;97729.88;;;15.83;74.33
15932;BME280;8065;49.520;11.284;2023-01-01T02:46:20;97729.19;;;15.86;74.29
15932;BME280;8065;49.520;11.284;2023-01-01T02:48:49;97737.41;;;15.93;73.86
15932;BME280;8065;49.520;11.284;2023-01-01T02:51:23;97733.59;;;15.94;73.72
15932;BME280;8065;49.520;11.284;2023-01-01T02:53:58;97732.91;;;15.97;73.63
15932;BME280;8065;49.520;11.284;2023-01-01T02:56:34;97726.75;;;15.97;73.49
15932;BME280;8065;49.520;11.284;2023-01-01T02:59:13;97730.66;;;15.99;73.51
15932;BME280;8065;49.520;11.284;2023-01-01T03:02:03;97730.66;;;15.99;73.41
15932;BME280;8065;49.520;11.284;2023-01-01T03:04:42;97730.66;;;15.99;73.62
15932;BME280;8065;49.520;11.284;2023-01-01T03:07:18;97727.81;;;15.92;73.18
15932;BME280;8065;49.520;11.284;2023-01-01T03:09:53;97733.41;;;15.87;73.76
15932;BME280;8065;49.520;11.284;2023-01-01T03:12:24;97736.34;;;15.82;73.88
15932;BME280;8065;49.520;11.284;2023-01-01T03:15:10;97732.28;;;15.72;73.68
15932;BME280;8065;49.520;11.284;2023-01-01T03:17:44;97725.28;;;15.68;74.29
15932;BME280;8065;49.520;11.284;2023-01-01T03:20:17;97725.53;;;15.79;73.38
15932;BME280;8065;49.520;11.284;2023-01-01T03:22:47;97727.00;;;15.76;73.51
15932;BME280;8065;49.520;11.284;2023-01-01T03:25:19;97727.69;;;15.73;74.14
15932;BME280;8065;49.520;11.284;2023-01-01T03:27:48;97725.28;;;15.68;73.99
15932;BME280;8065;49.520;11.284;2023-01-01T03:30:18;97723.13;;;15.58;74.23
15932;BME280;8065;49.520;11.284;2023-01-01T03:32:50;97730.72;;;15.56;74.01
15932;BME280;8065;49.520;11.284;2023-01-01T03:35:34;97738.75;;;15.56;74.02
15932;BME280;8065;49.520;11.284;2023-01-01T03:38:05;97745.69;;;15.57;74.32
15932;BME280;8065;49.520;11.284;2023-01-01T03:40:35;97747.84;;;15.67;74.34
15932;BME280;8065;49.520;11.284;2023-01-01T03:43:07;97752.94;;;15.72;73.54
15932;BME280;8065;49.520;11.284;2023-01-01T03:45:40;97748.19;;;15.65;73.96
15932;BME280;8065;49.520;11.284;2023-01-01T03:48:09;97750.34;;;15.60;73.58
15932;BME280;8065;49.520;11.284;2023-01-01T03:50:44;97757.41;;;15.52;73.89
15932;BME280;8065;49.520;11.284;2023-01-01T03:53:18;97753.06;;;15.48;73.97
15932;BME280;8065;49.520;11.284;2023-01-01T03:55:49;97750.28;;;15.44;74.01
15932;BME280;8065;49.520;11.284;2023-01-01T03:58:23;97759.44;;;15.43;74.70
15932;BME280;8065;49.520;11.284;2023-01-01T04:00:55;97754.69;;;15.36;74.34
15932;BME280;8065;49.520;11.284;2023-01-01T04:03:28;97765.09;;;15.54;74.28
15932;BME280;8065;49.520;11.284;2023-01-01T04:05:56;97762.22;;;15.47;73.70
15932;BME280;8065;49.520;11.284;2023-01-01T04:08:23;97762.88;;;15.28;74.51
15932;BME280;8065;49.520;11.284;2023-01-01T04:10:52;97757.31;;;15.21;74.63
15932;BME280;8065;49.520;11.284;2023-01-01T04:13:20;97758.53;;;15.23;74.75
15932;BME280;8065;49.520;11.284;2023-01-01T04:15:46;97753.19;;;15.23;74.69
15932;BME280;8065;49.520;11.284;2023-01-01T04:18:14;97766.47;;;15.20;74.68
15932;BME280;8065;49.520;11.284;2023-01-01T04:20:40;97764.56;;;15.20;75.20
15932;BME280;8065;49.520;11.284;2023-01-01T04:23:08;97767.25;;;15.20;74.72
15932;BME280;8065;49.520;11.284;2023-01-01T04:25:35;97773.72;;;15.19;75.11
15932;BME280;8065;49.520;11.284;2023-01-01T04:28:01;97771.03;;;15.19;74.67
15932;BME280;8065;49.520;11.284;2023-01-01T04:30:28;97776.72;;;15.18;74.76
15932;BME280;8065;49.520;11.284;2023-01-01T04:32:55;97782.56;;;15.07;75.31
15932;BME280;8065;49.520;11.284;2023-01-01T04:35:23;97787.56;;;15.09;75.17
15932;BME280;8065;49.520;11.284;2023-01-01T04:37:49;97783.09;;;15.13;75.48
15932;BME280;8065;49.520;11.284;2023-01-01T04:40:16;97795.13;;;15.19;74.97
15932;BME280;8065;49.520;11.284;2023-01-01T04:42:42;97803.59;;;15.21;75.03
15932;BME280;8065;49.520;11.284;2023-01-01T04:45:09;97792.91;;;15.21;74.87
15932;BME280;8065;49.520;11.284;2023-01-01T04:47:39;97810.97;;;15.24;74.47
15932;BME280;8065;49.520;11.284;2023-01-01T04:50:06;97800.03;;;15.17;74.29
15932;BME280;8065;49.520;11.284;2023-01-01T04:52:34;97800.47;;;15.19;74.48
15932;BME280;8065;49.520;11.284;2023-01-01T04:55:00;97800.47;;;15.19;75.06
15932;BME280;8065;49.520;11.284;2023-01-01T04:57:28;97807.28;;;15.17;74.21
15932;BME280;8065;49.520;11.284;2023-01-01T04:59:54;97813.56;;;15.08;74.88
15932;BME280;8065;49.520;11.284;2023-01-01T05:02:21;97814.56;;;15.04;74.31
15932;BME280;8065;49.520;11.284;2023-01-01T05:04:47;97815.16;;;14.97;74.80
15932;BME280;8065;49.520;11.284;2023-01-01T05:07:14;97817.94;;;14.89;74.75
15932;BME280;8065;49.520;11.284;2023-01-01T05:09:41;97812.59;;;14.89;75.15
15932;BME280;8065;49.520;11.284;2023-01-01T05:12:08;97817.72;;;14.82;75.79
15932;BME280;8065;49.520;11.284;2023-01-01T05:14:34;97814.16;;;14.77;75.68
15932;BME280;8065;49.520;11.284;2023-01-01T05:17:01;97832.00;;;14.73;75.05
15932;BME280;8065;49.520;11.284;2023-01-01T05:19:28;97833.28;;;14.64;75.76
15932;BME280;8065;49.520;11.284;2023-01-01T05:21:54;97834.50;;;14.54;76.38
15932;BME280;8065;49.520;11.284;2023-01-01T05:24:20;97835.84;;;14.48;76.21
15932;BME280;8065;49.520;11.284;2023-01-01T05:26:48;97836.25;;;14.38;76.63
15932;BME280;8065;49.520;11.284;2023-01-01T05:29:15;97845.38;;;14.37;76.89
15932;BME280;8065;49.520;11.284;2023-01-01T05:31:41;97844.47;;;14.33;76.86
15932;BME280;8065;49.520;11.284;2023-01-01T05:34:08;97847.47;;;14.31;76.79
15932;BME280;8065;49.520;11.284;2023-01-01T05:36:35;97855.16;;;14.33;77.00
15932;BME280;8065;49.520;11.284;2023-01-01T05:39:03;97855.38;;;14.28;77.28
15932;BME280;8065;49.520;11.284;2023-01-01T05:41:29;97860.28;;;14.26;76.99
15932;BME280;8065;49.520;11.284;2023-01-01T05:44:00;97858.59;;;14.21;77.00
15932;BME280;8065;49.520;11.284;2023-01-01T05:46:27;97860.03;;;14.19;77.40
15932;BME280;8065;49.520;11.284;2023-01-01T05:48:54;97863.50;;;14.19;77.57
15932;BME280;8065;49.520;11.284;2023-01-01T05:51:22;97855.34;;;14.16;77.64
15932;BME280;8065;49.520;11.284;2023-01-01T05:53:49;97862.69;;;14.06;78.03
15932;BME280;8065;49.520;11.284;2023-01-01T05:56:16;97863.56;;;13.98;77.89
15932;BME280;8065;49.520;11.284;2023-01-01T05:58:43;97855.97;;;13.88;78.00
15932;BME280;8065;49.520;11.284;2023-01-01T06:01:13;97860.19;;;13.77;78.66
15932;BME280;8065;49.520;11.284;2023-01-01T06:03:40;97850.28;;;13.77;77.97
15932;BME280;8065;49.520;11.284;2023-01-01T06:06:08;97862.03;;;13.64;78.46
15932;BME280;8065;49.520;11.284;2023-01-01T06:08:35;97860.34;;;13.60;78.33
15932;BME280;8065;49.520;11.284;2023-01-01T06:11:03;97855.38;;;13.50;78.66
15932;BME280;8065;49.520;11.284;2023-01-01T06:13:30;97862.16;;;13.47;79.04
15932;BME280;8065;49.520;11.284;2023-01-01T06:15:58;97867.75;;;13.33;79.55
15932;BME280;8065;49.520;11.284;2023-01-01T06:18:28;97861.19;;;13.31;79.16
15932;BME280;8065;49.520;11.284;2023-01-01T06:21:02;97865.03;;;13.21;79.28
15932;BME280;8065;49.520;11.284;2023-01-01T06:23:29;97866.13;;;13.20;79.28
15932;BME280;8065;49.520;11.284;2023-01-01T06:25:55;97869.00;;;13.36;79.32
15932;BME280;8065;49.520;11.284;2023-01-01T06:28:22;97862.53;;;13.16;80.54
15932;BME280;8065;49.520;11.284;2023-01-01T06:30:48;97860.34;;;13.18;80.60
15932;BME280;8065;49.520;11.284;2023-01-01T06:33:14;97864.09;;;13.17;80.89
15932;BME280;8065;49.520;11.284;2023-01-01T06:35:42;97872.06;;;13.26;80.58
15932;BME280;8065;49.520;11.284;2023-01-01T06:38:09;97875.63;;;13.30;80.69
15932;BME280;8065;49.520;11.284;2023-01-01T06:40:35;97873.75;;;13.30;80.61
15932;BME280;8065;49.520;11.284;2023-01-01T06:43:01;97876.69;;;13.37;80.57
15932;BME280;8065;49.520;11.284;2023-01-01T06:45:28;97872.84;;;13.47;80.52
15932;BME280;8065;49.520;11.284;2023-01-01T06:47:55;97870.09;;;13.56;80.13
15932;BME280;8065;49.520;11.284;2023-01-01T06:50:22;97878.81;;;13.65;79.99
15932;BME280;8065;49.520;11.284;2023-01-01T06:52:50;97879.41;;;13.70;79.81
15932;BME280;8065;49.520;11.284;2023-01-01T06:55:16;97880.75;;;13.76;79.78
15932;BME280;8065;49.520;11.284;2023-01-01T06:57:43;97884.00;;;13.82;79.36
15932;BME280;8065;49.520;11.284;2023-01-01T07:00:10;97894.03;;;13.85;79.69
15932;BME280;8065;49.520;11.284;2023-01-01T07:02:37;97899.84;;;13.99;78.93
15932;BME280;8065;49.520;11.284;2023-01-01T07:05:04;97899.00;;;14.07;79.04
15932;BME280;8065;49.520;11.284;2023-01-01T07:07:30;97899.13;;;14.11;78.87
15932;BME280;8065;49.520;11.284;2023-01-01T07:09:58;97903.03;;;14.14;78.75
15932;BME280;8065;49.520;11.284;2023-01-01T07:12:24;97913.38;;;14.15;78.35
15932;BME280;8065;49.520;11.284;2023-01-01T07:14:51;97917.94;;;14.15;78.43
15932;BME280;8065;49.520;11.284;2023-01-01T07:17:17;97915.97;;;14.24;78.43
15932;BME280;8065;49.520;11.284;2023-01-01T07:19:43;97915.44;;;14.30;78.05
15932;BME280;8065;49.520;11.284;2023-01-01T07:22:10;97923.56;;;14.34;77.93
15932;BME280;8065;49.520;11.284;2023-01-01T07:24:37;97926.47;;;14.41;78.10
15932;BME280;8065;49.520;11.284;2023-01-01T07:27:05;97925.97;;;14.48;77.68
15932;BME280;8065;49.520;11.284;2023-01-01T07:29:31;97924.31;;;14.55;77.29
15932;BME280;8065;49.520;11.284;2023-01-01T07:31:58;97933.00;;;14.64;77.09
15932;BME280;8065;49.520;11.284;2023-01-01T07:34:24;97930.22;;;14.85;76.43
15932;BME280;8065;49.520;11.284;2023-01-01T07:36:51;97925.44;;;15.03;76.08
15932;BME280;8065;49.520;11.284;2023-01-01T07:39:17;97935.78;;;15.29;75.07
15932;BME280;8065;49.520;11.284;2023-01-01T07:41:44;97932.97;;;15.50;74.43
15932;BME280;8065;49.520;11.284;2023-01-01T07:44:11;97938.06;;;15.67;73.41
15932;BME280;8065;49.520;11.284;2023-01-01T07:46:38;97937.53;;;15.89;72.67
15932;BME280;8065;49.520;11.284;2023-01-01T07:49:04;97932.03;;;16.26;71.87
15932;BME280;8065;49.520;11.284;2023-01-01T07:51:31;97939.22;;;16.53;70.17
15932;BME280;8065;49.520;11.284;2023-01-01T07:53:57;97941.34;;;16.76;69.97
15932;BME280;8065;49.520;11.284;2023-01-01T07:56:24;97948.97;;;16.89;69.38
15932;BME280;8065;49.520;11.284;2023-01-01T07:58:50;97950.69;;;16.82;69.56
15932;BME280;8065;49.520;11.284;2023-01-01T08:01:18;97944.88;;;17.11;69.15
15932;BME280;8065;49.520;11.284;2023-01-01T08:03:49;97947.28;;;17.16;68.03
15932;BME280;8065;49.520;11.284;2023-01-01T08:06:16;97954.13;;;17.49;67.76
15932;BME280;8065;49.520;11.284;2023-01-01T08:08:43;97953.13;;;17.37;67.65
15932;BME280;8065;49.520;11.284;2023-01-01T08:11:09;97951.72;;;17.79;66.73
15932;BME280;8065;49.520;11.284;2023-01-01T08:13:36;97962.53;;;18.21;66.18
15932;BME280;8065;49.520;11.284;2023-01-01T08:16:03;97952.41;;;18.56;64.84
15932;BME280;8065;49.520;11.284;2023-01-01T08:18:31;97960.53;;;19.02;63.90
15932;BME280;8065;49.520;11.284;2023-01-01T08:20:57;97955.97;;;19.32;62.80
15932;BME280;8065;49.520;11.284;2023-01-01T08:23:23;97958.66;;;19.59;61.35
15932;BME280;8065;49.520;11.284;2023-01-01T08:25:50;97967.84;;;20.18;60.75
15932;BME280;8065;49.520;11.284;2023-01-01T08:28:16;97968.38;;;19.97;59.67
15932;BME280;8065;49.520;11.284;2023-01-01T08:30:43;97968.63;;;20.18;59.36
15932;BME280;8065;49.520;11.284;2023-01-01T08:33:09;97974.34;;;20.43;59.42
15932;BME280;8065;49.520;11.284;2023-01-01T08:35:39;97968.63;;;20.96;58.13
15932;BME280;8065;49.520;11.284;2023-01-01T08:38:07;97973.00;;;20.64;58.62
15932;BME280;8065;49.520;11.284;2023-01-01T08:40:35;97974.47;;;21.02;57.44
15932;BME280;8065;49.520;11.284;2023-01-01T08:43:02;97972.72;;;21.23;57.33
15932;BME280;8065;49.520;11.284;2023-01-01T08:45:28;97984.72;;;20.78;57.91
15932;BME280;8065;49.520;11.284;2023-01-01T08:47:54;97977.88;;;20.95;57.57
15932;BME280;8065;49.520;11.284;2023-01-01T08:50:21;97983.09;;;20.70;57.31
15932;BME280;8065;49.520;11.284;2023-01-01T08:52:49;97990.53;;;20.84;57.62
15932;BME280;8065;49.520;11.284;2023-01-01T08:55:15;97993.72;;;20.52;58.48
15932;BME280;8065;49.520;11.284;2023-01-01T08:57:42;98000.22;;;20.48;58.44
15932;BME280;8065;49.520;11.284;2023-01-01T09:00:09;97993.69;;;20.19;59.05
15932;BME280;8065;49.520;11.284;2023-01-01T09:02:37;97999.25;;;20.00;59.52
15932;BME280;8065;49.520;11.284;2023-01-01T09:05:05;98004.03;;;19.80;59.78
15932;BME280;8065;49.520;11.284;2023-01-01T09:07:31;98000.78;;;20.01;59.45
15932;BME280;8065;49.520;11.284;2023-01-01T09:09:59;97999.00;;;19.78;59.79
15932;BME280;8065;49.520;11.284;2023-01-01T09:12:25;98002.72;;;19.70;60.13
15932;BME280;8065;49.520;11.284;2023-01-01T09:14:52;98001.25;;;19.50;60.91
15932;BME280;8065;49.520;11.284;2023-01-01T09:17:18;98008.97;;;19.25;61.13
15932;BME280;8065;49.520;11.284;2023-01-01T09:19:45;98005.59;;;19.05;61.99
15932;BME280;8065;49.520;11.284;2023-01-01T09:22:12;98017.69;;;18.92;62.55
15932;BME280;8065;49.520;11.284;2023-01-01T09:24:38;98020.69;;;18.87;62.61
15932;BME280;8065;49.520;11.284;2023-01-01T09:27:06;98019.72;;;18.76;62.66
15932;BME280;8065;49.520;11.284;2023-01-01T09:29:32;98018.75;;;18.64;63.33
15932;BME280;8065;49.520;11.284;2023-01-01T09:31:59;98022.16;;;18.61;63.22
15932;BME280;8065;49.520;11.284;2023-01-01T09:34:25;98025.69;;;18.65;63.00
15932;BME280;8065;49.520;11.284;2023-01-01T09:36:51;98026.78;;;18.84;62.80
15932;BME280;8065;49.520;11.284;2023-01-01T09:39:18;98030.75;;;18.90;62.66
15932;BME280;8065;49.520;11.284;2023-01-01T09:41:54;98036.84;;;18.87;62.61
15932;BME280;8065;49.520;11.284;2023-01-01T09:44:37;98032.63;;;19.12;62.11
15932;BME280;8065;49.520;11.284;2023-01-01T09:47:19;98036.81;;;19.32;62.06
15932;BME280;8065;49.520;11.284;2023-01-01T09:49:48;98030.66;;;19.32;61.39
15932;BME280;8065;49.520;11.284;2023-01-01T09:52:17;98029.13;;;19.35;61.24
15932;BME280;8065;49.520;11.284;2023-01-01T09:54:49;98031.38;;;19.29;61.58
15932;BME280;8065;49.520;11.284;2023-01-01T09:57:17;98027.47;;;19.26;61.57
15932;BME280;8065;49.520;11.284;2023-01-01T09:59:45;98027.88;;;19.28;61.56
15932;BME280;8065;49.520;11.284;2023-01-01T10:02:23;98022.34;;;19.44;61.66
15932;BME280;8065;49.520;11.284;2023-01-01T10:04:59;98015.72;;;19.91;60.33
15932;BME280;8065;49.520;11.284;2023-01-01T10:07:33;98023.34;;;20.15;60.55
15932;BME280;8065;49.520;11.284;2023-01-01T10:10:07;98020.19;;;20.10;60.22
15932;BME280;8065;49.520;11.284;2023-01-01T10:12:39;98010.25;;;20.17;60.21
15932;BME280;8065;49.520;11.284;2023-01-01T10:15:13;98009.88;;;20.19;60.04
15932;BME280;8065;49.520;11.284;2023-01-01T10:17:44;98000.06;;;20.04;60.14
15932;BME280;8065;49.520;11.284;2023-01-01T10:20:18;98000.38;;;19.98;60.19
15932;BME280;8065;49.520;11.284;2023-01-01T10:22:50;97998.50;;;20.03;60.20
15932;BME280;8065;49.520;11.284;2023-01-01T10:25:19;98001.47;;;19.90;60.08
15932;BME280;8065;49.520;11.284;2023-01-01T10:27:49;97996.75;;;19.84;60.83
15932;BME280;8065;49.520;11.284;2023-01-01T10:30:20;97997.50;;;19.81;60.53
15932;BME280;8065;49.520;11.284;2023-01-01T10:32:48;97996.50;;;19.66;60.60
15932;BME280;8065;49.520;11.284;2023-01-01T10:35:17;98001.72;;;19.52;61.22
15932;BME280;8065;49.520;11.284;2023-01-01T10:37:44;98002.72;;;19.70;61.16
15932;BME280;8065;49.520;11.284;2023-01-01T10:40:15;98005.09;;;19.49;61.56
15932;BME280;8065;49.520;11.284;2023-01-01T10:42:46;98001.75;;;19.55;61.40
15932;BME280;8065;49.520;11.284;2023-01-01T10:45:14;97998.81;;;19.64;61.10
15932;BME280;8065;49.520;11.284;2023-01-01T10:48:10;97998.66;;;19.53;61.22
15932;BME280;8065;49.520;11.284;2023-01-01T10:50:42;97997.69;;;19.42;61.23
15932;BME280;8065;49.520;11.284;2023-01-01T10:53:28;98006.25;;;19.48;61.38
15932;BME280;8065;49.520;11.284;2023-01-01T10:56:00;98006.13;;;19.41;61.72
15932;BME280;8065;49.520;11.284;2023-01-01T10:58:34;98011.63;;;19.48;61.46
15932;BME280;8065;49.520;11.284;2023-01-01T11:01:03;98012.34;;;19.45;61.21
15932;BME280;8065;49.520;11.284;2023-01-01T11:03:31;98012.78;;;19.47;61.45
15932;BME280;8065;49.520;11.284;2023-01-01T11:06:09;98008.22;;;19.51;61.29
15932;BME280;8065;49.520;11.284;2023-01-01T11:08:46;98006.31;;;19.51;61.44
15932;BME280;8065;49.520;11.284;2023-01-01T11:11:19;98015.47;;;19.47;61.79
15932;BME280;8065;49.520;11.284;2023-01-01T11:13:49;98009.28;;;19.46;61.48
15932;BME280;8065;49.520;11.284;2023-01-01T11:16:16;98011.63;;;19.48;61.28
15932;BME280;8065;49.520;11.284;2023-01-01T11:18:44;98005.00;;;19.42;61.19
15932;BME280;8065;49.520;11.284;2023-01-01T11:21:18;98006.66;;;19.50;61.19
15932;BME280;8065;49.520;11.284;2023-01-01T11:23:46;98010.03;;;19.43;61.04
15932;BME280;8065;49.520;11.284;2023-01-01T11:26:19;98005.41;;;19.44;60.99
15932;BME280;8065;49.520;11.284;2023-01-01T11:28:59;97999.19;;;19.40;61.48
15932;BME280;8065;49.520;11.284;2023-01-01T11:31:28;98002.28;;;19.42;60.80
15932;BME280;8065;49.520;11.284;2023-01-01T11:33:56;97993.91;;;19.47;60.99
15932;BME280;8065;49.520;11.284;2023-01-01T11:36:25;98001.06;;;19.36;61.00
15932;BME280;8065;49.520;11.284;2023-01-01T11:39:06;97993.84;;;19.43;60.80
15932;BME280;8065;49.520;11.284;2023-01-01T11:41:44;98001.25;;;19.50;60.73
15932;BME280;8065;49.520;11.284;2023-01-01T11:44:20;97984.66;;;19.48;61.19
15932;BME280;8065;49.520;11.284;2023-01-01T11:46:48;97987.78;;;19.50;60.79
15932;BME280;8065;49.520;11.284;2023-01-01T11:49:21;97982.84;;;19.52;60.80
15932;BME280;8065;49.520;11.284;2023-01-01T11:51:49;97982.38;;;19.50;61.01
15932;BME280;8065;49.520;11.284;2023-01-01T11:54:24;97974.94;;;19.40;60.78
15932;BME280;8065;49.520;11.284;2023-01-01T11:56:54;97973.16;;;19.51;61.01
15932;BME280;8065;49.520;11.284;2023-01-01T11:59:25;97973.97;;;19.51;61.20
15932;BME280;8065;49.520;11.284;2023-01-01T12:01:57;97971.91;;;19.45;61.82
15932;BME280;8065;49.520;11.284;2023-01-01T12:04:28;97962.31;;;19.47;62.01
15932;BME280;8065;49.520;11.284;2023-01-01T12:06:58;97964.66;;;19.49;61.85
15932;BME280;8065;49.520;11.284;2023-01-01T12:09:34;97968.50;;;19.48;61.45
15932;BME280;8065;49.520;11.284;2023-01-01T12:12:07;97965.44;;;19.49;61.98
15932;BME280;8065;49.520;11.284;2023-01-01T12:14:40;97972.09;;;19.55;61.53
15932;BME280;8065;49.520;11.284;2023-01-01T12:17:13;97973.59;;;19.53;61.56
15932;BME280;8065;49.520;11.284;2023-01-01T12:19:49;97970.19;;;19.56;61.60
15932;BME280;8065;49.520;11.284;2023-01-01T12:22:18;97960.94;;;19.57;61.83
15932;BME280;8065;49.520;11.284;2023-01-01T12:24:46;97962.38;;;19.51;61.88
15932;BME280;8065;49.520;11.284;2023-01-01T12:27:17;97962.75;;;19.49;62.03
15932;BME280;8065;49.520;11.284;2023-01-01T12:30:01;97957.44;;;19.53;62.11
15932;BME280;8065;49.520;11.284;2023-01-01T12:32:39;97963.09;;;19.48;62.05
15932;BME280;8065;49.520;11.284;2023-01-01T12:35:17;97958.56;;;19.52;62.26
15932;BME280;8065;49.520;11.284;2023-01-01T12:37:53;97954.59;;;19.46;62.32
15932;BME280;8065;49.520;11.284;2023-01-01T12:40:36;97957.78;;;19.51;61.86
15932;BME280;8065;49.520;11.284;2023-01-01T12:43:07;97955.38;;;19.46;62.06
15932;BME280;8065;49.520;11.284;2023-01-01T12:45:51;97954.59;;;19.46;62.28
15932;BME280;8065;49.520;11.284;2023-01-01T12:48:32;97954.59;;;19.46;62.05
15932;BME280;8065;49.520;11.284;2023-01-01T12:51:14;97952.94;;;19.38;62.58
15932;BME280;8065;49.520;11.284;2023-01-01T12:53:48;97952.22;;;19.41;62.54
15932;BME280;8065;49.520;11.284;2023-01-01T12:56:22;97960.31;;;19.41;62.54
15932;BME280;8065;49.520;11.284;2023-01-01T12:58:55;97954.50;;;19.39;62.69
15932;BME280;8065;49.520;11.284;2023-01-01T13:01:24;97957.47;;;19.30;63.37
15932;BME280;8065;49.520;11.284;2023-01-01T13:03:54;97962.91;;;19.33;62.89
15932;BME280;8065;49.520;11.284;2023-01-01T13:06:27;97947.88;;;19.32;62.71
15932;BME280;8065;49.520;11.284;2023-01-01T13:09:01;97947.56;;;19.38;62.84
15932;BME280;8065;49.520;11.284;2023-01-01T13:11:30;97942.44;;;19.29;62.96
15932;BME280;8065;49.520;11.284;2023-01-01T13:13:57;97945.50;;;19.27;62.92